sensor_id;sensor_type;location;lat;lon;timestamp;P1;durP1;ratioP1;P2;durP2;ratioP2
55186;SDS011;55457;52.002;5.464;2023-11-19T00:01:07;3.65;;;1.20;;
55186;SDS011;55457;52.002;5.464;2023-11-19T00:03:32;3.60;;;1.33;;
55186;SDS011;55457;52.002;5.464;2023-11-19T00:05:58;2.28;;;0.98;;
55186;SDS011;55457;52.002;5.464;2023-11-19T00:08:24;2.10;;;0.85;;
55186;SDS011;55457;52.002;5.464;2023-11-19T00:10:50;2.97;;;1.15;;
55186;SDS011;55457;52.002;5.464;2023-11-19T00:13:16;3.75;;;1.40;;
55186;SDS011;55457;52.002;5.464;2023-11-19T00:15:41;1.42;;;1.08;;
55186;SDS011;55457;52.002;5.464;2023-11-19T00:18:06;7.20;;;1.25;;
55186;SDS011;55457;52.002;5.464;2023-11-19T00:20:32;1.45;;;1.02;;
55186;SDS011;55457;52.002;5.464;2023-11-19T00:22:57;2.00;;;0.90;;
55186;SDS011;55457;52.002;5.464;2023-11-19T00:25:22;5.22;;;1.70;;
55186;SDS011;55457;52.002;5.464;2023-11-19T00:27:48;5.75;;;2.88;;
55186;SDS011;55457;52.002;5.464;2023-11-19T00:30:13;4.28;;;1.17;;
55186;SDS011;55457;52.002;5.464;2023-11-19T00:32:39;4.75;;;1.08;;
55186;SDS011;55457;52.002;5.464;2023-11-19T00:35:06;3.08;;;1.00;;
55186;SDS011;55457;52.002;5.464;2023-11-19T00:37:32;4.15;;;1.10;;
55186;SDS011;55457;52.002;5.464;2023-11-19T00:39:57;3.15;;;1.15;;
55186;SDS011;55457;52.002;5.464;2023-11-19T00:42:23;3.80;;;1.90;;
55186;SDS011;55457;52.002;5.464;2023-11-19T00:44:49;4.75;;;1.20;;
55186;SDS011;55457;52.002;5.464;2023-11-19T00:47:15;3.75;;;1.48;;
55186;SDS011;55457;52.002;5.464;2023-11-19T00:49:40;5.40;;;1.45;;
55186;SDS011;55457;52.002;5.464;2023-11-19T00:52:06;6.22;;;1.40;;
55186;SDS011;55457;52.002;5.464;2023-11-19T00:54:31;2.97;;;1.00;;
55186;SDS011;55457;52.002;5.464;2023-11-19T00:56:57;5.15;;;1.23;;
55186;SDS011;55457;52.002;5.464;2023-11-19T00:59:22;2.83;;;1.42;;
55186;SDS011;55457;52.002;5.464;2023-11-19T01:01:47;4.43;;;1.00;;
55186;SDS011;55457;52.002;5.464;2023-11-19T01:04:13;4.03;;;1.15;;
55186;SDS011;55457;52.002;5.464;2023-11-19T01:06:39;3.40;;;1.30;;
55186;SDS011;55457;52.002;5.464;2023-11-19T01:09:05;4.97;;;1.50;;
55186;SDS011;55457;52.002;5.464;2023-11-19T01:11:30;3.13;;;1.23;;
55186;SDS011;55457;52.002;5.464;2023-11-19T01:13:56;2.53;;;1.20;;
55186;SDS011;55457;52.002;5.464;2023-11-19T01:16:21;6.95;;;1.20;;
55186;SDS011;55457;52.002;5.464;2023-11-19T01:18:47;4.25;;;1.25;;
55186;SDS011;55457;52.002;5.464;2023-11-19T01:21:13;2.35;;;0.90;;
55186;SDS011;55457;52.002;5.464;2023-11-19T01:23:41;6.07;;;1.83;;
55186;SDS011;55457;52.002;5.464;2023-11-19T01:26:11;5.63;;;1.80;;
55186;SDS011;55457;52.002;5.464;2023-11-19T01:28:37;3.60;;;1.45;;
55186;SDS011;55457;52.002;5.464;2023-11-19T01:31:04;4.40;;;1.20;;
55186;SDS011;55457;52.002;5.464;2023-11-19T01:33:30;7.25;;;1.45;;
55186;SDS011;55457;52.002;5.464;2023-11-19T01:35:56;3.22;;;1.20;;
55186;SDS011;55457;52.002;5.464;2023-11-19T01:38:23;5.78;;;1.63;;
55186;SDS011;55457;52.002;5.464;2023-11-19T01:40:49;7.63;;;1.45;;
55186;SDS011;55457;52.002;5.464;2023-11-19T01:43:30;5.03;;;1.23;;
55186;SDS011;55457;52.002;5.464;2023-11-19T01:45:57;5.18;;;1.63;;
55186;SDS011;55457;52.002;5.464;2023-11-19T01:48:22;5.13;;;1.75;;
55186;SDS011;55457;52.002;5.464;2023-11-19T01:50:47;8.85;;;2.05;;
55186;SDS011;55457;52.002;5.464;2023-11-19T01:53:13;5.13;;;1.63;;
55186;SDS011;55457;52.002;5.464;2023-11-19T01:55:38;7.10;;;1.80;;
55186;SDS011;55457;52.002;5.464;2023-11-19T01:58:04;6.45;;;1.65;;
55186;SDS011;55457;52.002;5.464;2023-11-19T02:00:29;5.95;;;1.58;;
55186;SDS011;55457;52.002;5.464;2023-11-19T02:02:58;6.07;;;1.73;;
55186;SDS011;55457;52.002;5.464;2023-11-19T02:05:23;7.22;;;2.05;;
55186;SDS011;55457;52.002;5.464;2023-11-19T02:07:49;6.68;;;2.05;;
55186;SDS011;55457;52.002;5.464;2023-11-19T02:10:16;6.07;;;1.73;;
55186;SDS011;55457;52.002;5.464;2023-11-19T02:12:44;7.30;;;1.90;;
55186;SDS011;55457;52.002;5.464;2023-11-19T02:15:10;9.30;;;3.42;;
55186;SDS011;55457;52.002;5.464;2023-11-19T02:17:35;6.38;;;1.63;;
55186;SDS011;55457;52.002;5.464;2023-11-19T02:20:03;6.28;;;1.75;;
55186;SDS011;55457;52.002;5.464;2023-11-19T02:22:31;5.18;;;1.63;;
55186;SDS011;55457;52.002;5.464;2023-11-19T02:24:59;8.73;;;1.73;;
55186;SDS011;55457;52.002;5.464;2023-11-19T02:27:31;6.32;;;2.33;;
55186;SDS011;55457;52.002;5.464;2023-11-19T02:30:07;8.02;;;1.92;;
55186;SDS011;55457;52.002;5.464;2023-11-19T02:32:33;3.95;;;1.48;;
55186;SDS011;55457;52.002;5.464;2023-11-19T02:35:00;6.82;;;2.08;;
55186;SDS011;55457;52.002;5.464;2023-11-19T02:37:26;9.55;;;1.63;;
55186;SDS011;55457;52.002;5.464;2023-11-19T02:39:53;7.15;;;2.05;;
55186;SDS011;55457;52.002;5.464;2023-11-19T02:42:18;6.55;;;2.40;;
55186;SDS011;55457;52.002;5.464;2023-11-19T02:44:44;10.77;;;2.65;;
55186;SDS011;55457;52.002;5.464;2023-11-19T02:47:10;8.50;;;1.65;;
55186;SDS011;55457;52.002;5.464;2023-11-19T02:49:36;6.85;;;2.08;;
55186;SDS011;55457;52.002;5.464;2023-11-19T02:52:02;10.25;;;2.17;;
55186;SDS011;55457;52.002;5.464;2023-11-19T02:54:30;8.32;;;1.67;;
55186;SDS011;55457;52.002;5.464;2023-11-19T02:57:00;9.55;;;2.42;;
55186;SDS011;55457;52.002;5.464;2023-11-19T02:59:27;4.82;;;1.48;;
55186;SDS011;55457;52.002;5.464;2023-11-19T03:01:53;7.97;;;2.13;;
55186;SDS011;55457;52.002;5.464;2023-11-19T03:04:20;6.30;;;1.85;;
55186;SDS011;55457;52.002;5.464;2023-11-19T03:06:45;10.10;;;2.38;;
55186;SDS011;55457;52.002;5.464;2023-11-19T03:09:11;10.32;;;1.85;;
55186;SDS011;55457;52.002;5.464;2023-11-19T03:11:37;7.90;;;1.90;;
55186;SDS011;55457;52.002;5.464;2023-11-19T03:14:02;13.70;;;2.28;;
55186;SDS011;55457;52.002;5.464;2023-11-19T03:16:28;8.35;;;2.30;;
55186;SDS011;55457;52.002;5.464;2023-11-19T03:18:54;8.13;;;2.55;;
55186;SDS011;55457;52.002;5.464;2023-11-19T03:21:26;9.65;;;2.35;;
55186;SDS011;55457;52.002;5.464;2023-11-19T03:23:52;8.90;;;3.10;;
55186;SDS011;55457;52.002;5.464;2023-11-19T03:26:18;11.43;;;3.55;;
55186;SDS011;55457;52.002;5.464;2023-11-19T03:28:43;10.13;;;2.30;;
55186;SDS011;55457;52.002;5.464;2023-11-19T03:31:08;5.93;;;2.08;;
55186;SDS011;55457;52.002;5.464;2023-11-19T03:33:34;10.75;;;2.83;;
55186;SDS011;55457;52.002;5.464;2023-11-19T03:35:59;13.98;;;3.17;;
55186;SDS011;55457;52.002;5.464;2023-11-19T03:38:24;12.93;;;2.53;;
55186;SDS011;55457;52.002;5.464;2023-11-19T03:40:50;12.05;;;3.35;;
55186;SDS011;55457;52.002;5.464;2023-11-19T03:43:15;9.52;;;2.47;;
55186;SDS011;55457;52.002;5.464;2023-11-19T03:45:40;7.57;;;2.22;;
55186;SDS011;55457;52.002;5.464;2023-11-19T03:48:06;12.13;;;3.25;;
55186;SDS011;55457;52.002;5.464;2023-11-19T03:50:31;9.27;;;2.30;;
55186;SDS011;55457;52.002;5.464;2023-11-19T03:52:56;17.42;;;4.13;;
55186;SDS011;55457;52.002;5.464;2023-11-19T03:55:22;6.57;;;2.17;;
55186;SDS011;55457;52.002;5.464;2023-11-19T03:57:47;11.75;;;2.53;;
55186;SDS011;55457;52.002;5.464;2023-11-19T04:00:13;7.60;;;2.33;;
55186;SDS011;55457;52.002;5.464;2023-11-19T04:02:40;9.18;;;2.65;;
55186;SDS011;55457;52.002;5.464;2023-11-19T04:05:06;14.18;;;2.75;;
55186;SDS011;55457;52.002;5.464;2023-11-19T04:07:31;8.57;;;2.17;;
55186;SDS011;55457;52.002;5.464;2023-11-19T04:09:57;10.68;;;2.42;;
55186;SDS011;55457;52.002;5.464;2023-11-19T04:12:23;11.05;;;3.70;;
55186;SDS011;55457;52.002;5.464;2023-11-19T04:14:48;8.90;;;3.08;;
55186;SDS011;55457;52.002;5.464;2023-11-19T04:17:13;10.20;;;2.70;;
55186;SDS011;55457;52.002;5.464;2023-11-19T04:19:39;11.60;;;2.05;;
55186;SDS011;55457;52.002;5.464;2023-11-19T04:22:06;9.50;;;2.95;;
55186;SDS011;55457;52.002;5.464;2023-11-19T04:24:32;15.05;;;3.33;;
55186;SDS011;55457;52.002;5.464;2023-11-19T04:26:58;9.57;;;3.13;;
55186;SDS011;55457;52.002;5.464;2023-11-19T04:29:23;9.50;;;2.65;;
55186;SDS011;55457;52.002;5.464;2023-11-19T04:31:49;13.80;;;3.38;;
55186;SDS011;55457;52.002;5.464;2023-11-19T04:34:14;11.07;;;2.75;;
55186;SDS011;55457;52.002;5.464;2023-11-19T04:36:39;10.18;;;3.58;;
55186;SDS011;55457;52.002;5.464;2023-11-19T04:39:05;9.18;;;2.63;;
55186;SDS011;55457;52.002;5.464;2023-11-19T04:41:34;11.77;;;3.80;;
55186;SDS011;55457;52.002;5.464;2023-11-19T04:44:01;11.77;;;3.75;;
55186;SDS011;55457;52.002;5.464;2023-11-19T04:46:26;10.40;;;3.08;;
55186;SDS011;55457;52.002;5.464;2023-11-19T04:48:52;7.45;;;2.75;;
55186;SDS011;55457;52.002;5.464;2023-11-19T04:51:17;14.68;;;3.25;;
55186;SDS011;55457;52.002;5.464;2023-11-19T04:53:42;10.95;;;3.58;;
55186;SDS011;55457;52.002;5.464;2023-11-19T04:56:08;13.32;;;3.00;;
55186;SDS011;55457;52.002;5.464;2023-11-19T04:58:34;14.82;;;3.75;;
55186;SDS011;55457;52.002;5.464;2023-11-19T05:01:01;15.75;;;3.75;;
55186;SDS011;55457;52.002;5.464;2023-11-19T05:03:26;13.52;;;2.25;;
55186;SDS011;55457;52.002;5.464;2023-11-19T05:05:52;11.27;;;2.53;;
55186;SDS011;55457;52.002;5.464;2023-11-19T05:08:17;11.90;;;3.15;;
55186;SDS011;55457;52.002;5.464;2023-11-19T05:10:42;12.52;;;3.45;;
55186;SDS011;55457;52.002;5.464;2023-11-19T05:13:07;11.50;;;2.83;;
55186;SDS011;55457;52.002;5.464;2023-11-19T05:15:33;13.10;;;3.08;;
55186;SDS011;55457;52.002;5.464;2023-11-19T05:17:58;10.27;;;2.92;;
55186;SDS011;55457;52.002;5.464;2023-11-19T05:20:23;7.47;;;2.45;;
55186;SDS011;55457;52.002;5.464;2023-11-19T05:22:49;8.00;;;2.40;;
55186;SDS011;55457;52.002;5.464;2023-11-19T05:25:16;11.27;;;2.47;;
55186;SDS011;55457;52.002;5.464;2023-11-19T05:27:41;8.82;;;2.10;;
55186;SDS011;55457;52.002;5.464;2023-11-19T05:30:07;15.23;;;3.38;;
55186;SDS011;55457;52.002;5.464;2023-11-19T05:32:33;11.10;;;2.45;;
55186;SDS011;55457;52.002;5.464;2023-11-19T05:34:58;6.07;;;2.22;;
55186;SDS011;55457;52.002;5.464;2023-11-19T05:37:24;16.98;;;4.43;;
55186;SDS011;55457;52.002;5.464;2023-11-19T05:39:50;8.88;;;2.75;;
55186;SDS011;55457;52.002;5.464;2023-11-19T05:42:15;12.77;;;2.92;;
55186;SDS011;55457;52.002;5.464;2023-11-19T05:44:41;14.68;;;2.58;;
55186;SDS011;55457;52.002;5.464;2023-11-19T05:47:06;10.23;;;2.72;;
55186;SDS011;55457;52.002;5.464;2023-11-19T05:49:32;9.05;;;2.05;;
55186;SDS011;55457;52.002;5.464;2023-11-19T05:51:58;11.48;;;3.05;;
55186;SDS011;55457;52.002;5.464;2023-11-19T05:54:23;14.25;;;3.70;;
55186;SDS011;55457;52.002;5.464;2023-11-19T05:56:48;12.02;;;3.72;;
55186;SDS011;55457;52.002;5.464;2023-11-19T05:59:14;12.27;;;2.80;;
55186;SDS011;55457;52.002;5.464;2023-11-19T06:01:42;11.27;;;2.67;;
55186;SDS011;55457;52.002;5.464;2023-11-19T06:04:08;14.30;;;3.90;;
55186;SDS011;55457;52.002;5.464;2023-11-19T06:06:33;9.82;;;2.45;;
55186;SDS011;55457;52.002;5.464;2023-11-19T06:08:59;12.60;;;2.67;;
55186;SDS011;55457;52.002;5.464;2023-11-19T06:11:24;8.07;;;2.47;;
55186;SDS011;55457;52.002;5.464;2023-11-19T06:13:52;14.52;;;4.60;;
55186;SDS011;55457;52.002;5.464;2023-11-19T06:16:17;9.65;;;2.95;;
55186;SDS011;55457;52.002;5.464;2023-11-19T06:18:43;16.92;;;3.28;;
55186;SDS011;55457;52.002;5.464;2023-11-19T06:21:09;12.55;;;4.60;;
55186;SDS011;55457;52.002;5.464;2023-11-19T06:23:34;12.25;;;3.28;;
55186;SDS011;55457;52.002;5.464;2023-11-19T06:26:00;12.55;;;3.55;;
55186;SDS011;55457;52.002;5.464;2023-11-19T06:28:25;8.93;;;2.85;;
55186;SDS011;55457;52.002;5.464;2023-11-19T06:30:51;10.68;;;2.90;;
55186;SDS011;55457;52.002;5.464;2023-11-19T06:33:16;11.40;;;2.95;;
55186;SDS011;55457;52.002;5.464;2023-11-19T06:35:42;10.45;;;2.65;;
55186;SDS011;55457;52.002;5.464;2023-11-19T06:38:07;13.57;;;3.78;;
55186;SDS011;55457;52.002;5.464;2023-11-19T06:40:33;10.77;;;2.97;;
55186;SDS011;55457;52.002;5.464;2023-11-19T06:43:02;12.73;;;2.53;;
55186;SDS011;55457;52.002;5.464;2023-11-19T06:45:28;15.10;;;3.70;;
55186;SDS011;55457;52.002;5.464;2023-11-19T06:47:54;14.98;;;3.35;;
55186;SDS011;55457;52.002;5.464;2023-11-19T06:50:19;12.95;;;3.70;;
55186;SDS011;55457;52.002;5.464;2023-11-19T06:52:45;21.58;;;4.90;;
55186;SDS011;55457;52.002;5.464;2023-11-19T06:55:11;18.00;;;4.18;;
55186;SDS011;55457;52.002;5.464;2023-11-19T06:57:36;15.02;;;3.50;;
55186;SDS011;55457;52.002;5.464;2023-11-19T07:00:02;17.30;;;3.97;;
55186;SDS011;55457;52.002;5.464;2023-11-19T07:02:30;13.82;;;3.45;;
55186;SDS011;55457;52.002;5.464;2023-11-19T07:04:56;16.15;;;4.65;;
55186;SDS011;55457;52.002;5.464;2023-11-19T07:07:21;17.63;;;3.13;;
55186;SDS011;55457;52.002;5.464;2023-11-19T07:09:47;20.98;;;3.30;;
55186;SDS011;55457;52.002;5.464;2023-11-19T07:12:13;13.35;;;3.70;;
55186;SDS011;55457;52.002;5.464;2023-11-19T07:14:39;20.20;;;3.08;;
55186;SDS011;55457;52.002;5.464;2023-11-19T07:17:05;15.10;;;3.75;;
55186;SDS011;55457;52.002;5.464;2023-11-19T07:19:31;16.25;;;3.47;;
55186;SDS011;55457;52.002;5.464;2023-11-19T07:21:56;12.52;;;3.70;;
55186;SDS011;55457;52.002;5.464;2023-11-19T07:24:22;15.98;;;3.58;;
55186;SDS011;55457;52.002;5.464;2023-11-19T07:26:47;19.05;;;4.82;;
55186;SDS011;55457;52.002;5.464;2023-11-19T07:29:13;19.15;;;3.42;;
55186;SDS011;55457;52.002;5.464;2023-11-19T07:31:40;12.75;;;4.25;;
55186;SDS011;55457;52.002;5.464;2023-11-19T07:34:05;12.30;;;3.35;;
55186;SDS011;55457;52.002;5.464;2023-11-19T07:36:31;13.73;;;3.15;;
55186;SDS011;55457;52.002;5.464;2023-11-19T07:38:57;18.83;;;3.90;;
55186;SDS011;55457;52.002;5.464;2023-11-19T07:41:23;16.30;;;4.57;;
55186;SDS011;55457;52.002;5.464;2023-11-19T07:43:50;18.00;;;3.75;;
55186;SDS011;55457;52.002;5.464;2023-11-19T07:46:16;15.68;;;3.42;;
55186;SDS011;55457;52.002;5.464;2023-11-19T07:48:44;15.98;;;3.40;;
55186;SDS011;55457;52.002;5.464;2023-11-19T07:51:11;13.85;;;3.47;;
55186;SDS011;55457;52.002;5.464;2023-11-19T07:53:37;12.13;;;3.60;;
55186;SDS011;55457;52.002;5.464;2023-11-19T07:56:03;11.65;;;2.53;;
55186;SDS011;55457;52.002;5.464;2023-11-19T07:58:29;14.82;;;3.60;;
55186;SDS011;55457;52.002;5.464;2023-11-19T08:00:54;17.10;;;2.83;;
55186;SDS011;55457;52.002;5.464;2023-11-19T08:03:20;16.63;;;4.15;;
55186;SDS011;55457;52.002;5.464;2023-11-19T08:05:48;7.22;;;3.78;;
55186;SDS011;55457;52.002;5.464;2023-11-19T08:08:13;9.38;;;2.88;;
55186;SDS011;55457;52.002;5.464;2023-11-19T08:10:38;14.77;;;3.30;;
55186;SDS011;55457;52.002;5.464;2023-11-19T08:13:05;12.55;;;3.15;;
55186;SDS011;55457;52.002;5.464;2023-11-19T08:15:30;15.48;;;3.53;;
55186;SDS011;55457;52.002;5.464;2023-11-19T08:17:56;8.85;;;2.92;;
55186;SDS011;55457;52.002;5.464;2023-11-19T08:20:21;14.32;;;3.20;;
55186;SDS011;55457;52.002;5.464;2023-11-19T08:22:47;13.35;;;3.78;;
55186;SDS011;55457;52.002;5.464;2023-11-19T08:25:12;11.77;;;2.67;;
55186;SDS011;55457;52.002;5.464;2023-11-19T08:27:38;10.25;;;3.22;;
55186;SDS011;55457;52.002;5.464;2023-11-19T08:30:04;12.95;;;2.67;;
55186;SDS011;55457;52.002;5.464;2023-11-19T08:32:31;10.13;;;2.92;;
55186;SDS011;55457;52.002;5.464;2023-11-19T08:34:56;15.60;;;3.40;;
55186;SDS011;55457;52.002;5.464;2023-11-19T08:37:22;18.35;;;4.25;;
55186;SDS011;55457;52.002;5.464;2023-11-19T08:39:47;11.20;;;3.42;;
55186;SDS011;55457;52.002;5.464;2023-11-19T08:42:14;12.75;;;3.42;;
55186;SDS011;55457;52.002;5.464;2023-11-19T08:44:39;12.27;;;3.55;;
55186;SDS011;55457;52.002;5.464;2023-11-19T08:47:08;9.40;;;4.10;;
55186;SDS011;55457;52.002;5.464;2023-11-19T08:49:34;12.75;;;3.05;;
55186;SDS011;55457;52.002;5.464;2023-11-19T08:51:59;15.45;;;3.65;;
55186;SDS011;55457;52.002;5.464;2023-11-19T08:54:25;20.55;;;3.33;;
55186;SDS011;55457;52.002;5.464;2023-11-19T08:56:50;11.50;;;3.53;;
55186;SDS011;55457;52.002;5.464;2023-11-19T08:59:16;13.23;;;2.95;;
55186;SDS011;55457;52.002;5.464;2023-11-19T09:01:41;12.13;;;3.60;;
55186;SDS011;55457;52.002;5.464;2023-11-19T09:04:06;15.10;;;3.63;;
55186;SDS011;55457;52.002;5.464;2023-11-19T09:06:32;9.07;;;3.00;;
55186;SDS011;55457;52.002;5.464;2023-11-19T09:08:57;12.65;;;2.78;;
55186;SDS011;55457;52.002;5.464;2023-11-19T09:11:27;14.40;;;2.90;;
55186;SDS011;55457;52.002;5.464;2023-11-19T09:13:52;16.35;;;3.90;;
55186;SDS011;55457;52.002;5.464;2023-11-19T09:16:18;10.50;;;2.85;;
55186;SDS011;55457;52.002;5.464;2023-11-19T09:18:43;10.75;;;2.92;;
55186;SDS011;55457;52.002;5.464;2023-11-19T09:21:10;12.80;;;3.17;;
55186;SDS011;55457;52.002;5.464;2023-11-19T09:23:36;14.13;;;3.25;;
55186;SDS011;55457;52.002;5.464;2023-11-19T09:26:04;10.35;;;3.17;;
55186;SDS011;55457;52.002;5.464;2023-11-19T09:28:30;13.15;;;3.70;;
55186;SDS011;55457;52.002;5.464;2023-11-19T09:30:56;13.95;;;4.47;;
55186;SDS011;55457;52.002;5.464;2023-11-19T09:33:21;11.15;;;2.45;;
55186;SDS011;55457;52.002;5.464;2023-11-19T09:35:47;12.43;;;2.67;;
55186;SDS011;55457;52.002;5.464;2023-11-19T09:38:14;13.20;;;3.67;;
55186;SDS011;55457;52.002;5.464;2023-11-19T09:40:40;11.52;;;3.30;;
55186;SDS011;55457;52.002;5.464;2023-11-19T09:43:05;11.98;;;3.35;;
55186;SDS011;55457;52.002;5.464;2023-11-19T09:45:35;11.43;;;3.08;;
55186;SDS011;55457;52.002;5.464;2023-11-19T09:48:12;9.18;;;2.60;;
55186;SDS011;55457;52.002;5.464;2023-11-19T09:50:38;9.07;;;2.65;;
55186;SDS011;55457;52.002;5.464;2023-11-19T09:53:05;11.57;;;3.13;;
55186;SDS011;55457;52.002;5.464;2023-11-19T09:55:31;13.60;;;2.88;;
55186;SDS011;55457;52.002;5.464;2023-11-19T09:57:57;13.15;;;3.20;;
55186;SDS011;55457;52.002;5.464;2023-11-19T10:00:26;11.02;;;3.05;;
55186;SDS011;55457;52.002;5.464;2023-11-19T10:02:52;9.68;;;2.80;;
55186;SDS011;55457;52.002;5.464;2023-11-19T10:05:18;14.23;;;3.60;;
55186;SDS011;55457;52.002;5.464;2023-11-19T10:07:45;8.80;;;3.47;;
55186;SDS011;55457;52.002;5.464;2023-11-19T10:10:12;10.10;;;2.92;;
55186;SDS011;55457;52.002;5.464;2023-11-19T10:12:40;13.13;;;2.50;;
55186;SDS011;55457;52.002;5.464;2023-11-19T10:15:05;9.95;;;3.35;;
55186;SDS011;55457;52.002;5.464;2023-11-19T10:17:34;9.85;;;2.60;;
55186;SDS011;55457;52.002;5.464;2023-11-19T10:20:00;7.70;;;2.53;;
55186;SDS011;55457;52.002;5.464;2023-11-19T10:22:27;13.98;;;4.55;;
55186;SDS011;55457;52.002;5.464;2023-11-19T10:24:52;11.18;;;3.42;;
55186;SDS011;55457;52.002;5.464;2023-11-19T10:27:18;7.15;;;2.47;;
55186;SDS011;55457;52.002;5.464;2023-11-19T10:29:46;10.23;;;2.80;;
55186;SDS011;55457;52.002;5.464;2023-11-19T10:32:12;11.07;;;3.13;;
55186;SDS011;55457;52.002;5.464;2023-11-19T10:34:39;12.05;;;3.10;;
55186;SDS011;55457;52.002;5.464;2023-11-19T10:37:06;12.32;;;3.10;;
55186;SDS011;55457;52.002;5.464;2023-11-19T10:39:51;11.57;;;3.47;;
55186;SDS011;55457;52.002;5.464;2023-11-19T10:42:19;8.95;;;2.40;;
55186;SDS011;55457;52.002;5.464;2023-11-19T10:44:44;9.15;;;2.33;;
55186;SDS011;55457;52.002;5.464;2023-11-19T10:47:10;15.65;;;3.53;;
55186;SDS011;55457;52.002;5.464;2023-11-19T10:49:36;14.63;;;3.80;;
55186;SDS011;55457;52.002;5.464;2023-11-19T10:52:03;16.10;;;3.25;;
55186;SDS011;55457;52.002;5.464;2023-11-19T10:54:30;11.48;;;2.60;;
55186;SDS011;55457;52.002;5.464;2023-11-19T10:57:00;17.70;;;3.03;;
55186;SDS011;55457;52.002;5.464;2023-11-19T10:59:28;11.50;;;3.25;;
55186;SDS011;55457;52.002;5.464;2023-11-19T11:01:56;9.80;;;2.90;;
55186;SDS011;55457;52.002;5.464;2023-11-19T11:04:23;16.90;;;3.70;;
55186;SDS011;55457;52.002;5.464;2023-11-19T11:06:53;12.32;;;2.80;;
55186;SDS011;55457;52.002;5.464;2023-11-19T11:09:20;10.88;;;3.35;;
55186;SDS011;55457;52.002;5.464;2023-11-19T11:11:46;14.75;;;2.80;;
55186;SDS011;55457;52.002;5.464;2023-11-19T11:14:12;10.00;;;3.03;;
55186;SDS011;55457;52.002;5.464;2023-11-19T11:16:43;11.18;;;2.97;;
55186;SDS011;55457;52.002;5.464;2023-11-19T11:19:11;12.18;;;3.33;;
55186;SDS011;55457;52.002;5.464;2023-11-19T11:21:37;13.13;;;3.08;;
55186;SDS011;55457;52.002;5.464;2023-11-19T11:24:24;16.20;;;3.95;;
55186;SDS011;55457;52.002;5.464;2023-11-19T11:35:24;11.70;;;2.63;;
55186;SDS011;55457;52.002;5.464;2023-11-19T11:37:56;10.65;;;2.88;;
55186;SDS011;55457;52.002;5.464;2023-11-19T11:40:27;11.65;;;3.45;;
55186;SDS011;55457;52.002;5.464;2023-11-19T11:42:53;14.80;;;3.28;;
55186;SDS011;55457;52.002;5.464;2023-11-19T11:45:19;13.93;;;3.28;;
55186;SDS011;55457;52.002;5.464;2023-11-19T11:50:19;8.88;;;2.78;;
55186;SDS011;55457;52.002;5.464;2023-11-19T11:55:33;11.05;;;2.72;;
55186;SDS011;55457;52.002;5.464;2023-11-19T11:58:03;12.98;;;2.35;;
55186;SDS011;55457;52.002;5.464;2023-11-19T12:00:30;14.80;;;3.15;;
55186;SDS011;55457;52.002;5.464;2023-11-19T12:02:57;14.10;;;3.10;;
55186;SDS011;55457;52.002;5.464;2023-11-19T12:05:26;16.67;;;4.35;;
55186;SDS011;55457;52.002;5.464;2023-11-19T12:07:56;16.77;;;3.60;;
55186;SDS011;55457;52.002;5.464;2023-11-19T12:10:26;15.75;;;4.32;;
55186;SDS011;55457;52.002;5.464;2023-11-19T12:13:09;8.73;;;2.53;;
55186;SDS011;55457;52.002;5.464;2023-11-19T12:18:24;12.57;;;3.20;;
55186;SDS011;55457;52.002;5.464;2023-11-19T12:20:52;16.05;;;2.70;;
55186;SDS011;55457;52.002;5.464;2023-11-19T12:23:17;10.93;;;2.90;;
55186;SDS011;55457;52.002;5.464;2023-11-19T12:25:42;12.88;;;2.53;;
55186;SDS011;55457;52.002;5.464;2023-11-19T12:28:13;10.73;;;2.75;;
55186;SDS011;55457;52.002;5.464;2023-11-19T12:30:41;9.52;;;2.92;;
55186;SDS011;55457;52.002;5.464;2023-11-19T12:33:10;10.98;;;3.35;;
55186;SDS011;55457;52.002;5.464;2023-11-19T12:35:39;14.60;;;3.85;;
55186;SDS011;55457;52.002;5.464;2023-11-19T12:38:05;15.07;;;3.60;;
55186;SDS011;55457;52.002;5.464;2023-11-19T12:40:30;9.32;;;2.50;;
55186;SDS011;55457;52.002;5.464;2023-11-19T12:42:56;11.07;;;2.65;;
55186;SDS011;55457;52.002;5.464;2023-11-19T12:45:22;15.13;;;3.70;;
55186;SDS011;55457;52.002;5.464;2023-11-19T12:47:48;9.77;;;3.13;;
55186;SDS011;55457;52.002;5.464;2023-11-19T12:50:15;11.48;;;3.10;;
55186;SDS011;55457;52.002;5.464;2023-11-19T12:52:42;15.82;;;2.72;;
55186;SDS011;55457;52.002;5.464;2023-11-19T12:55:27;13.13;;;2.90;;
55186;SDS011;55457;52.002;5.464;2023-11-19T12:57:53;15.82;;;2.92;;
55186;SDS011;55457;52.002;5.464;2023-11-19T13:00:23;9.88;;;3.45;;
55186;SDS011;55457;52.002;5.464;2023-11-19T13:02:53;9.70;;;3.20;;
55186;SDS011;55457;52.002;5.464;2023-11-19T13:05:32;11.55;;;2.60;;
55186;SDS011;55457;52.002;5.464;2023-11-19T13:08:02;15.02;;;2.50;;
55186;SDS011;55457;52.002;5.464;2023-11-19T13:10:29;14.63;;;3.58;;
55186;SDS011;55457;52.002;5.464;2023-11-19T13:13:08;16.85;;;3.05;;
55186;SDS011;55457;52.002;5.464;2023-11-19T13:15:34;14.27;;;2.42;;
55186;SDS011;55457;52.002;5.464;2023-11-19T13:18:00;9.27;;;2.67;;
55186;SDS011;55457;52.002;5.464;2023-11-19T13:20:27;7.93;;;2.42;;
55186;SDS011;55457;52.002;5.464;2023-11-19T13:22:53;11.18;;;2.53;;
55186;SDS011;55457;52.002;5.464;2023-11-19T13:25:20;13.50;;;2.53;;
55186;SDS011;55457;52.002;5.464;2023-11-19T13:27:45;8.90;;;2.55;;
55186;SDS011;55457;52.002;5.464;2023-11-19T13:30:11;11.10;;;2.28;;
55186;SDS011;55457;52.002;5.464;2023-11-19T13:32:37;8.80;;;2.30;;
55186;SDS011;55457;52.002;5.464;2023-11-19T13:35:04;11.25;;;2.47;;
55186;SDS011;55457;52.002;5.464;2023-11-19T13:37:30;9.93;;;2.75;;
55186;SDS011;55457;52.002;5.464;2023-11-19T13:39:55;9.82;;;2.40;;
55186;SDS011;55457;52.002;5.464;2023-11-19T13:42:20;10.25;;;2.58;;
55186;SDS011;55457;52.002;5.464;2023-11-19T13:44:46;13.18;;;2.25;;
55186;SDS011;55457;52.002;5.464;2023-11-19T13:47:11;10.68;;;2.58;;
55186;SDS011;55457;52.002;5.464;2023-11-19T13:49:38;12.90;;;3.15;;
55186;SDS011;55457;52.002;5.464;2023-11-19T13:52:04;7.90;;;2.38;;
55186;SDS011;55457;52.002;5.464;2023-11-19T13:54:29;8.85;;;2.78;;
55186;SDS011;55457;52.002;5.464;2023-11-19T13:56:55;8.25;;;2.03;;
55186;SDS011;55457;52.002;5.464;2023-11-19T13:59:23;8.50;;;2.38;;
55186;SDS011;55457;52.002;5.464;2023-11-19T14:01:48;6.88;;;2.15;;
55186;SDS011;55457;52.002;5.464;2023-11-19T14:04:14;9.90;;;3.08;;
55186;SDS011;55457;52.002;5.464;2023-11-19T14:06:39;8.77;;;2.72;;
55186;SDS011;55457;52.002;5.464;2023-11-19T14:09:06;7.75;;;2.67;;
55186;SDS011;55457;52.002;5.464;2023-11-19T14:11:32;9.98;;;1.80;;
55186;SDS011;55457;52.002;5.464;2023-11-19T14:13:57;8.05;;;1.88;;
55186;SDS011;55457;52.002;5.464;2023-11-19T14:16:26;4.82;;;1.75;;
55186;SDS011;55457;52.002;5.464;2023-11-19T14:18:51;9.43;;;2.05;;
55186;SDS011;55457;52.002;5.464;2023-11-19T14:21:17;9.10;;;2.03;;
55186;SDS011;55457;52.002;5.464;2023-11-19T14:23:42;10.38;;;2.50;;
55186;SDS011;55457;52.002;5.464;2023-11-19T14:26:07;8.18;;;1.92;;
55186;SDS011;55457;52.002;5.464;2023-11-19T14:28:33;10.38;;;2.15;;
55186;SDS011;55457;52.002;5.464;2023-11-19T14:30:58;6.20;;;2.53;;
55186;SDS011;55457;52.002;5.464;2023-11-19T14:33:24;14.50;;;2.75;;
55186;SDS011;55457;52.002;5.464;2023-11-19T14:35:49;12.55;;;2.42;;
55186;SDS011;55457;52.002;5.464;2023-11-19T14:38:15;7.00;;;2.13;;
55186;SDS011;55457;52.002;5.464;2023-11-19T14:40:40;11.02;;;1.92;;
55186;SDS011;55457;52.002;5.464;2023-11-19T14:43:07;6.85;;;1.65;;
55186;SDS011;55457;52.002;5.464;2023-11-19T14:45:35;8.18;;;2.20;;
55186;SDS011;55457;52.002;5.464;2023-11-19T14:48:00;10.43;;;2.17;;
55186;SDS011;55457;52.002;5.464;2023-11-19T14:50:26;10.27;;;2.17;;
55186;SDS011;55457;52.002;5.464;2023-11-19T14:52:51;10.85;;;2.58;;